createdAt,value
2022-11-28T00:01:43.018Z,6.13
2022-11-28T00:04:11.700Z,6.67
2022-11-28T00:06:52.356Z,7.10
2022-11-28T00:09:21.094Z,6.40
2022-11-28T00:11:49.553Z,6.03
2022-11-28T00:14:18.680Z,8.00
2022-11-28T00:16:48.999Z,5.93
2022-11-28T00:19:16.818Z,8.73
2022-11-28T00:21:43.530Z,5.83
2022-11-28T00:24:10.415Z,6.37
2022-11-28T00:26:41.297Z,5.50
2022-11-28T00:29:09.566Z,6.63
2022-11-28T00:31:42.737Z,5.70
2022-11-28T00:34:17.737Z,6.90
2022-11-28T00:36:47.391Z,6.77
2022-11-28T00:39:17.292Z,6.23
2022-11-28T00:41:45.003Z,8.03
2022-11-28T00:44:11.776Z,7.20
2022-11-28T00:46:39.034Z,6.80
2022-11-28T00:49:06.498Z,7.70
2022-11-28T00:51:36.501Z,5.83
2022-11-28T00:54:08.474Z,7.23
2022-11-28T00:56:39.328Z,6.67
2022-11-28T00:59:07.353Z,5.47
2022-11-28T01:01:38.772Z,6.57
2022-11-28T01:04:09.608Z,8.13
2022-11-28T01:06:50.182Z,6.23
2022-11-28T01:09:22.244Z,6.37
2022-11-28T01:11:52.138Z,5.33
2022-11-28T01:14:23.741Z,9.40
2022-11-28T01:16:50.878Z,6.07
2022-11-28T01:19:18.150Z,7.37
2022-11-28T01:21:45.306Z,6.80
2022-11-28T01:24:13.462Z,7.13
2022-11-28T01:26:41.685Z,5.70
2022-11-28T01:29:09.190Z,5.70
2022-11-28T01:31:36.715Z,5.67
2022-11-28T01:34:03.570Z,7.50
2022-11-28T01:36:31.869Z,6.63
2022-11-28T01:38:59.124Z,5.37
2022-11-28T01:41:27.846Z,7.60
2022-11-28T01:44:09.043Z,5.27
2022-11-28T01:46:36.643Z,5.83
2022-11-28T01:49:21.322Z,4.60
2022-11-28T01:52:07.564Z,5.30
2022-11-28T01:54:38.145Z,5.60
2022-11-28T01:57:16.773Z,6.70
2022-11-28T02:00:16.875Z,5.47
2022-11-28T02:03:01.816Z,4.93
2022-11-28T02:05:28.639Z,5.30
2022-11-28T02:07:55.488Z,5.37
2022-11-28T02:11:05.133Z,4.57
2022-11-28T02:13:31.726Z,4.63
2022-11-28T02:16:39.543Z,4.30
2022-11-28T02:19:44.813Z,4.30
2022-11-28T02:23:08.912Z,4.27
2022-11-28T02:26:19.249Z,3.50
2022-11-28T02:29:35.711Z,3.97
2022-11-28T02:32:45.595Z,3.87
2022-11-28T02:36:24.227Z,3.87
2022-11-28T02:39:29.355Z,4.67
2022-11-28T02:42:36.087Z,3.47
2022-11-28T02:45:27.680Z,3.83
2022-11-28T02:48:15.730Z,3.57
2022-11-28T02:51:09.349Z,3.63
2022-11-28T02:53:37.723Z,3.90
2022-11-28T02:56:05.831Z,3.80
2022-11-28T02:58:32.580Z,4.17
2022-11-28T03:00:59.896Z,4.20
2022-11-28T03:03:35.504Z,4.17
2022-11-28T03:06:16.536Z,4.80
2022-11-28T03:09:01.310Z,5.23
2022-11-28T03:12:01.898Z,4.67
2022-11-28T03:15:03.022Z,5.57
2022-11-28T03:17:59.696Z,5.80
2022-11-28T03:20:55.552Z,4.87
2022-11-28T03:23:37.319Z,5.30
2022-11-28T03:26:30.851Z,5.93
2022-11-28T03:29:18.349Z,6.00
2022-11-28T03:32:24.266Z,5.20
2022-11-28T03:35:02.986Z,5.50
2022-11-28T03:37:36.323Z,6.87
2022-11-28T03:40:14.056Z,7.90
2022-11-28T03:42:48.199Z,6.43
2022-11-28T03:45:29.572Z,7.40
2022-11-28T03:48:04.778Z,6.97
2022-11-28T03:51:13.994Z,7.33
2022-11-28T03:54:08.493Z,6.43
2022-11-28T03:56:56.785Z,7.13
2022-11-28T03:59:36.823Z,8.17
2022-11-28T04:02:52.581Z,10.00
2022-11-28T04:05:45.293Z,7.23
2022-11-28T04:08:23.000Z,8.47
2022-11-28T04:11:19.658Z,8.27
2022-11-28T04:14:00.949Z,8.90
2022-11-28T04:16:40.231Z,8.53
2022-11-28T04:19:24.883Z,8.73
2022-11-28T04:22:07.198Z,8.97
2022-11-28T04:24:45.465Z,8.87
2022-11-28T04:27:20.024Z,9.33
2022-11-28T04:29:56.786Z,9.07
2022-11-28T04:32:31.627Z,7.80
2022-11-28T04:35:10.416Z,10.43
2022-11-28T04:37:40.995Z,9.80
2022-11-28T04:40:12.198Z,10.10
2022-11-28T04:42:56.137Z,11.43
2022-11-28T04:45:37.123Z,10.20
2022-11-28T04:48:04.670Z,9.00
2022-11-28T04:50:48.826Z,7.90
2022-11-28T04:53:45.327Z,10.43
2022-11-28T04:56:21.701Z,9.67
2022-11-28T04:58:50.958Z,9.80
2022-11-28T05:01:31.536Z,11.33
2022-11-28T05:03:58.302Z,10.10
2022-11-28T05:06:29.534Z,8.10
2022-11-28T05:08:56.633Z,8.13
2022-11-28T05:11:23.666Z,9.43
2022-11-28T05:13:50.482Z,8.40
2022-11-28T05:16:18.976Z,9.53
2022-11-28T05:18:45.922Z,10.60
2022-11-28T05:21:13.083Z,9.00
2022-11-28T05:23:46.517Z,10.60
2022-11-28T05:26:20.208Z,8.17
2022-11-28T05:28:51.158Z,9.40
2022-11-28T05:31:22.038Z,11.67
2022-11-28T05:33:49.150Z,10.97
2022-11-28T05:36:18.264Z,9.00
2022-11-28T05:38:45.468Z,13.93
2022-11-28T05:41:30.288Z,11.07
2022-11-28T05:43:59.556Z,9.47
2022-11-28T05:46:27.669Z,10.23
2022-11-28T05:48:54.793Z,10.90
2022-11-28T05:51:29.082Z,9.73
2022-11-28T05:53:56.033Z,10.50
2022-11-28T05:56:23.679Z,9.27
2022-11-28T05:58:52.440Z,11.13
2022-11-28T06:01:23.877Z,9.17
2022-11-28T06:03:52.180Z,10.00
2022-11-28T06:06:22.508Z,11.37
2022-11-28T06:08:52.714Z,9.53
2022-11-28T06:11:24.326Z,9.80
2022-11-28T06:13:51.146Z,8.97
2022-11-28T06:16:25.644Z,7.73
2022-11-28T06:18:58.872Z,9.17
2022-11-28T06:21:27.684Z,9.70
2022-11-28T06:23:54.814Z,8.33
2022-11-28T06:26:24.722Z,8.63
2022-11-28T06:28:51.662Z,9.57
2022-11-28T06:31:23.075Z,9.33
2022-11-28T06:33:50.382Z,10.67
2022-11-28T06:36:19.721Z,11.90
2022-11-28T06:38:48.574Z,9.07
2022-11-28T06:41:19.119Z,8.57
2022-11-28T06:43:46.011Z,9.57
2022-11-28T06:46:17.139Z,10.33
2022-11-28T06:48:47.556Z,10.37
2022-11-28T06:51:15.334Z,11.53
2022-11-28T06:53:42.727Z,9.30
2022-11-28T06:56:14.021Z,11.40
2022-11-28T06:58:42.733Z,12.80
2022-11-28T07:01:22.463Z,11.03
2022-11-28T07:03:49.777Z,9.20
2022-11-28T07:06:22.125Z,11.90
2022-11-28T07:08:49.695Z,13.37
2022-11-28T07:11:30.044Z,12.13
2022-11-28T07:14:01.194Z,11.47
2022-11-28T07:16:32.407Z,11.87
2022-11-28T07:19:00.585Z,12.57
2022-11-28T07:21:28.593Z,13.90
2022-11-28T07:23:55.872Z,13.37
2022-11-28T07:26:22.812Z,13.03
2022-11-28T07:28:51.600Z,11.63
2022-11-28T07:31:25.323Z,12.13
2022-11-28T07:33:52.942Z,12.47
2022-11-28T07:36:26.766Z,12.67
2022-11-28T07:38:59.043Z,12.23
2022-11-28T07:41:27.377Z,11.60
2022-11-28T07:44:01.432Z,12.13
2022-11-28T07:46:30.991Z,14.90
2022-11-28T07:48:58.802Z,16.83
2022-11-28T07:51:31.622Z,12.93
2022-11-28T07:53:58.958Z,12.03
2022-11-28T07:59:20.863Z,13.47
2022-11-28T08:01:48.666Z,16.17
2022-11-28T08:04:15.535Z,13.00
2022-11-28T08:06:44.276Z,14.27
2022-11-28T08:09:14.440Z,15.10
2022-11-28T08:11:41.644Z,19.33
2022-11-28T08:14:08.712Z,14.07
2022-11-28T08:16:41.342Z,16.27
2022-11-28T08:19:09.676Z,17.93
2022-11-28T08:21:37.371Z,18.63
2022-11-28T08:24:05.501Z,16.70
2022-11-28T08:26:33.844Z,17.60
2022-11-28T08:29:02.929Z,16.40
2022-11-28T08:31:33.831Z,15.90
2022-11-28T08:34:04.072Z,15.13
2022-11-28T08:36:31.046Z,19.73
2022-11-28T08:39:30.823Z,19.33
2022-11-28T08:41:47.834Z,23.17
2022-11-28T08:44:14.600Z,19.47
2022-11-28T08:46:41.894Z,18.90
2022-11-28T08:49:08.644Z,20.67
2022-11-28T08:51:36.814Z,25.07
2022-11-28T08:54:06.654Z,21.17
2022-11-28T08:56:34.349Z,20.97
2022-11-28T08:59:02.187Z,20.80
2022-11-28T09:01:29.622Z,24.07
2022-11-28T09:03:57.707Z,25.20
2022-11-28T09:06:24.866Z,25.40
2022-11-28T09:08:53.509Z,22.97
2022-11-28T09:11:22.718Z,23.03
2022-11-28T09:13:49.790Z,22.73
2022-11-28T09:16:17.362Z,25.10
2022-11-28T09:18:44.301Z,26.60
2022-11-28T09:21:14.557Z,25.37
2022-11-28T09:23:44.176Z,29.43
2022-11-28T09:26:18.566Z,26.40
2022-11-28T09:28:46.439Z,27.50
2022-11-28T09:31:15.141Z,28.17
2022-11-28T09:33:42.811Z,30.90
2022-11-28T09:36:16.671Z,29.13
2022-11-28T09:38:43.788Z,24.30
2022-11-28T09:41:28.543Z,25.50
2022-11-28T09:44:22.510Z,26.50
2022-11-28T09:46:54.823Z,29.37
2022-11-28T09:49:43.263Z,29.10
2022-11-28T09:52:46.463Z,30.33
2022-11-28T09:55:22.470Z,27.60
2022-11-28T09:57:52.758Z,27.83
2022-11-28T10:00:34.920Z,33.53
2022-11-28T10:03:16.773Z,36.10
2022-11-28T10:06:09.704Z,32.53
2022-11-28T10:08:54.395Z,29.63
2022-11-28T10:11:50.124Z,29.13
2022-11-28T10:14:42.610Z,30.43
2022-11-28T10:17:50.255Z,30.20
2022-11-28T10:20:28.607Z,29.30
2022-11-28T10:23:02.616Z,30.33
2022-11-28T10:25:36.874Z,35.53
2022-11-28T10:28:14.853Z,31.93
2022-11-28T10:30:47.603Z,32.03
2022-11-28T10:33:43.506Z,35.27
2022-11-28T10:36:23.562Z,35.77
2022-11-28T10:38:51.307Z,28.53
2022-11-28T10:41:28.754Z,32.80
2022-11-28T10:44:29.189Z,35.63
2022-11-28T10:47:15.162Z,32.43
2022-11-28T10:50:11.018Z,30.03
2022-11-28T10:53:27.284Z,29.77
2022-11-28T10:56:11.840Z,35.37
2022-11-28T10:59:18.991Z,29.77
2022-11-28T11:01:50.140Z,35.17
2022-11-28T11:04:26.651Z,32.73
2022-11-28T11:07:19.086Z,34.23
2022-11-28T11:09:47.754Z,32.00
2022-11-28T11:12:32.311Z,28.53
2022-11-28T11:14:59.273Z,35.10
2022-11-28T11:17:35.884Z,32.50
2022-11-28T11:20:35.723Z,27.93
2022-11-28T11:23:21.918Z,28.70
2022-11-28T11:25:54.737Z,30.80
2022-11-28T11:28:39.046Z,28.37
2022-11-28T11:31:18.700Z,29.90
2022-11-28T11:33:46.391Z,31.83
2022-11-28T11:36:27.767Z,33.57
2022-11-28T11:39:11.497Z,27.03
2022-11-28T11:41:44.999Z,26.53
2022-11-28T11:44:14.698Z,25.83
2022-11-28T11:47:00.524Z,24.40
2022-11-28T11:49:38.332Z,24.23
2022-11-28T11:52:30.018Z,24.40
2022-11-28T11:54:56.701Z,65.27
2022-11-28T11:57:51.204Z,33.57
2022-11-28T12:00:40.539Z,25.60
2022-11-28T12:03:40.877Z,23.73
2022-11-28T12:06:27.283Z,24.63
2022-11-28T12:09:03.322Z,23.30
2022-11-28T12:11:43.810Z,25.17
2022-11-28T12:14:40.636Z,25.17
2022-11-28T12:20:58.519Z,21.97
2022-11-28T12:24:17.513Z,23.87
2022-11-28T12:27:06.489Z,21.93
2022-11-28T12:30:12.058Z,25.67
2022-11-28T12:33:04.003Z,27.50
2022-11-28T12:36:05.961Z,22.25
2022-11-28T12:38:44.564Z,27.97
2022-11-28T12:41:30.713Z,21.97
2022-11-28T12:44:14.509Z,25.57
2022-11-28T12:47:20.307Z,26.80
2022-11-28T12:50:27.195Z,24.50
2022-11-28T12:53:19.372Z,20.93
2022-11-28T12:56:10.769Z,21.17
2022-11-28T12:59:08.762Z,23.88
2022-11-28T13:01:50.639Z,21.90
2022-11-28T13:04:20.113Z,19.03
2022-11-28T13:07:34.209Z,19.40
2022-11-28T13:10:44.408Z,20.03
2022-11-28T13:13:42.544Z,21.47
2022-11-28T13:16:41.978Z,22.90
2022-11-28T13:19:32.557Z,23.07
2022-11-28T13:22:19.680Z,24.73
2022-11-28T13:25:12.002Z,22.40
2022-11-28T13:27:55.861Z,22.33
2022-11-28T13:30:31.097Z,26.10
2022-11-28T13:33:37.647Z,24.00
2022-11-28T13:39:34.936Z,22.13
2022-11-28T13:45:34.236Z,21.53
2022-11-28T13:49:12.613Z,28.05
2022-11-28T13:51:32.936Z,27.55
2022-11-28T13:54:21.222Z,30.03
2022-11-28T13:57:03.996Z,28.83
2022-11-28T13:59:34.863Z,25.05
2022-11-28T14:02:17.329Z,25.05
2022-11-28T14:04:45.141Z,26.47
2022-11-28T14:07:50.368Z,28.73
2022-11-28T14:10:40.499Z,30.30
2022-11-28T14:13:29.669Z,25.25
2022-11-28T14:16:28.759Z,25.50
2022-11-28T14:19:40.473Z,26.50
2022-11-28T14:22:44.204Z,29.52
2022-11-28T14:25:28.508Z,35.50
2022-11-28T14:28:05.669Z,28.70
2022-11-28T14:30:43.258Z,33.58
2022-11-28T14:33:33.947Z,34.08
2022-11-28T14:36:31.399Z,27.95
2022-11-28T14:39:34.344Z,28.75
2022-11-28T14:42:04.236Z,33.20
2022-11-28T14:44:59.077Z,27.98
2022-11-28T14:47:34.864Z,33.88
2022-11-28T14:50:07.870Z,30.75
2022-11-28T14:52:41.129Z,28.90
2022-11-28T14:55:11.041Z,31.33
2022-11-28T14:57:54.159Z,26.73
2022-11-28T15:00:50.729Z,26.48
2022-11-28T15:03:43.301Z,26.50
2022-11-28T15:06:29.459Z,27.90
2022-11-28T15:09:16.567Z,29.17
2022-11-28T15:12:17.412Z,23.63
2022-11-28T15:14:50.555Z,26.47
2022-11-28T15:17:25.521Z,24.80
2022-11-28T15:19:53.194Z,26.53
2022-11-28T15:22:40.795Z,25.65
2022-11-28T15:25:24.064Z,24.58
2022-11-28T15:27:51.371Z,21.40
2022-11-28T15:30:21.709Z,25.13
2022-11-28T15:32:48.892Z,27.65
2022-11-28T15:35:20.796Z,24.63
2022-11-28T15:37:53.983Z,23.90
2022-11-28T15:40:34.635Z,23.87
2022-11-28T15:43:09.565Z,24.08
2022-11-28T15:45:42.415Z,25.55
2022-11-28T15:48:26.245Z,31.00
2022-11-28T15:50:53.044Z,30.08
2022-11-28T15:53:21.618Z,29.50
2022-11-28T15:56:15.579Z,28.17
2022-11-28T15:58:44.997Z,27.80
2022-11-28T16:01:27.212Z,27.53
2022-11-28T16:04:06.510Z,28.37
2022-11-28T16:06:38.739Z,25.60
2022-11-28T16:09:18.790Z,32.47
2022-11-28T16:11:49.415Z,29.33
2022-11-28T16:14:44.729Z,23.27
2022-11-28T16:17:28.006Z,28.87
2022-11-28T16:19:56.381Z,30.87
2022-11-28T16:22:37.034Z,29.42
2022-11-28T16:25:33.216Z,26.90
2022-11-28T16:28:00.709Z,29.63
2022-11-28T16:30:41.423Z,28.87
2022-11-28T16:33:44.784Z,35.40
2022-11-28T16:36:35.724Z,26.60
2022-11-28T16:39:14.339Z,27.63
2022-11-28T16:42:05.125Z,39.23
2022-11-28T16:44:33.485Z,33.07
2022-11-28T16:47:01.142Z,36.33
2022-11-28T16:49:44.926Z,37.00
2022-11-28T16:52:24.217Z,29.35
2022-11-28T16:54:59.336Z,30.17
2022-11-28T16:57:47.464Z,27.80
2022-11-28T17:00:14.482Z,28.07
2022-11-28T17:02:41.228Z,32.87
2022-11-28T17:05:09.723Z,32.60
2022-11-28T17:07:36.651Z,27.67
2022-11-28T17:10:03.862Z,27.97
2022-11-28T17:12:36.004Z,35.30
2022-11-28T17:15:03.616Z,29.93
2022-11-28T17:17:31.883Z,32.50
2022-11-28T17:20:00.335Z,30.40
2022-11-28T17:22:48.484Z,33.33
2022-11-28T17:25:18.742Z,30.77
2022-11-28T17:27:48.022Z,31.30
2022-11-28T17:30:19.563Z,36.00
2022-11-28T17:32:47.962Z,33.83
2022-11-28T17:35:23.952Z,32.23
2022-11-28T17:37:50.958Z,27.40
2022-11-28T17:40:36.854Z,31.63
2022-11-28T17:43:04.030Z,30.55
2022-11-28T17:45:35.136Z,31.67
2022-11-28T17:48:02.094Z,29.23
2022-11-28T17:50:28.870Z,29.67
2022-11-28T17:52:55.585Z,29.63
2022-11-28T17:55:22.366Z,26.92
2022-11-28T17:57:49.158Z,31.77
2022-11-28T18:00:16.869Z,33.73
2022-11-28T18:02:43.768Z,34.53
2022-11-28T18:05:10.663Z,33.85
2022-11-28T18:07:37.711Z,35.65
2022-11-28T18:10:05.246Z,41.38
2022-11-28T18:12:34.707Z,33.72
2022-11-28T18:15:01.475Z,31.92
2022-11-28T18:17:28.236Z,39.95
2022-11-28T18:19:57.692Z,30.20
2022-11-28T18:22:24.924Z,35.53
2022-11-28T18:24:54.662Z,31.55
2022-11-28T18:27:21.460Z,31.90
2022-11-28T18:29:49.361Z,30.20
2022-11-28T18:32:18.003Z,32.00
2022-11-28T18:34:48.589Z,25.73
2022-11-28T18:37:15.322Z,32.57
2022-11-28T18:39:42.544Z,34.47
2022-11-28T18:42:09.559Z,32.77
2022-11-28T18:44:36.300Z,36.50
2022-11-28T18:47:03.043Z,34.73
2022-11-28T18:49:29.774Z,29.50
2022-11-28T18:51:56.831Z,39.70
2022-11-28T18:54:23.643Z,36.77
2022-11-28T18:56:50.418Z,32.63
2022-11-28T18:59:17.873Z,32.33
2022-11-28T19:01:44.844Z,33.37
2022-11-28T19:04:13.237Z,29.33
2022-11-28T19:06:43.455Z,34.57
2022-11-28T19:09:14.243Z,38.17
2022-11-28T19:11:41.144Z,31.27
2022-11-28T19:14:10.123Z,39.33
2022-11-28T19:16:38.157Z,50.07
2022-11-28T19:19:06.568Z,43.73
2022-11-28T19:21:35.819Z,47.80
2022-11-28T19:24:04.312Z,37.90
2022-11-28T19:26:34.006Z,49.90
2022-11-28T19:29:02.564Z,33.87
2022-11-28T19:31:33.193Z,28.20
2022-11-28T19:34:12.086Z,33.47
2022-11-28T19:36:42.870Z,24.93
2022-11-28T19:39:22.118Z,27.13
2022-11-28T19:41:50.832Z,25.13
2022-11-28T19:44:17.597Z,29.00
2022-11-28T19:46:44.508Z,30.70
2022-11-28T19:49:23.818Z,44.40
2022-11-28T19:51:52.218Z,34.00
2022-11-28T19:54:20.052Z,27.40
2022-11-28T19:56:47.559Z,42.53
2022-11-28T19:59:14.592Z,38.40
2022-11-28T20:01:41.518Z,44.37
2022-11-28T20:04:08.866Z,37.63
2022-11-28T20:06:35.961Z,35.83
2022-11-28T20:09:08.711Z,30.50
2022-11-28T20:11:36.880Z,32.97
2022-11-28T20:14:11.369Z,30.20
2022-11-28T20:16:38.528Z,29.83
2022-11-28T20:19:07.582Z,29.23
2022-11-28T20:21:35.310Z,36.47
2022-11-28T20:24:07.305Z,45.63
2022-11-28T20:26:41.535Z,39.87
2022-11-28T20:29:16.444Z,44.60
2022-11-28T20:31:47.376Z,38.67
2022-11-28T20:34:17.764Z,43.17
2022-11-28T20:36:45.151Z,37.83
2022-11-28T20:39:12.803Z,44.10
2022-11-28T20:41:45.859Z,37.00
2022-11-28T20:44:12.635Z,35.30
2022-11-28T20:46:39.873Z,42.70
2022-11-28T20:49:07.916Z,45.67
2022-11-28T20:51:36.023Z,46.07
2022-11-28T20:54:05.591Z,39.73
2022-11-28T20:57:12.674Z,43.27
2022-11-28T20:59:29.827Z,48.60
2022-11-28T21:01:58.794Z,49.90
2022-11-28T21:04:26.693Z,51.97
2022-11-28T21:06:53.737Z,52.23
2022-11-28T21:09:20.728Z,50.80
2022-11-28T21:11:57.879Z,46.27
2022-11-28T21:14:26.548Z,51.17
2022-11-28T21:16:53.381Z,50.90
2022-11-28T21:19:20.185Z,55.00
2022-11-28T21:21:47.096Z,51.03
2022-11-28T21:24:14.613Z,51.07
2022-11-28T21:26:49.461Z,55.43
2022-11-28T21:29:19.898Z,53.00
2022-11-28T21:31:46.939Z,52.23
2022-11-28T21:34:15.524Z,54.70
2022-11-28T21:36:43.304Z,56.50
2022-11-28T21:39:18.750Z,54.00
2022-11-28T21:41:46.559Z,61.03
2022-11-28T21:44:13.471Z,56.43
2022-11-28T21:46:40.249Z,53.00
2022-11-28T21:49:07.009Z,64.00
2022-11-28T21:51:34.833Z,64.60
2022-11-28T21:54:02.652Z,50.73
2022-11-28T21:56:29.542Z,51.50
2022-11-28T21:58:56.226Z,62.07
2022-11-28T22:01:23.065Z,59.33
2022-11-28T22:03:49.834Z,64.90
2022-11-28T22:06:26.721Z,53.30
2022-11-28T22:08:54.794Z,52.07
2022-11-28T22:11:21.909Z,41.93
2022-11-28T22:13:49.928Z,51.37
2022-11-28T22:16:27.851Z,57.87
2022-11-28T22:18:58.594Z,60.20
2022-11-28T22:24:12.444Z,51.73
2022-11-28T22:26:39.231Z,57.30
2022-11-28T22:29:06.007Z,59.03
2022-11-28T22:31:32.948Z,56.37
2022-11-28T22:34:01.897Z,57.67
2022-11-28T22:36:28.834Z,53.60
2022-11-28T22:38:58.825Z,51.33
2022-11-28T22:41:29.309Z,51.87
2022-11-28T22:44:00.524Z,52.27
2022-11-28T22:46:28.514Z,52.70
2022-11-28T22:48:55.722Z,53.50
2022-11-28T22:51:25.460Z,53.07
2022-11-28T22:54:00.757Z,56.67
2022-11-28T22:56:30.621Z,52.87
2022-11-28T22:58:57.472Z,63.27
2022-11-28T23:01:29.093Z,62.30
2022-11-28T23:03:56.492Z,61.67
2022-11-28T23:06:29.142Z,54.90
2022-11-28T23:08:58.972Z,61.90
2022-11-28T23:11:30.365Z,57.10
2022-11-28T23:13:57.214Z,62.10
2022-11-28T23:16:36.524Z,63.33
2022-11-28T23:19:08.430Z,64.77
2022-11-28T23:21:38.971Z,55.53
2022-11-28T23:24:07.360Z,56.13
2022-11-28T23:26:35.270Z,54.13
2022-11-28T23:29:04.831Z,52.80
2022-11-28T23:31:41.855Z,53.40
2022-11-28T23:34:11.986Z,58.87
2022-11-28T23:36:45.688Z,46.90
2022-11-28T23:39:22.527Z,52.33
2022-11-28T23:41:53.524Z,49.03
2022-11-28T23:44:20.942Z,45.30
2022-11-28T23:46:48.402Z,47.53
2022-11-28T23:49:15.280Z,55.17
2022-11-28T23:51:42.638Z,48.70
2022-11-28T23:54:11.717Z,46.30
2022-11-28T23:56:43.463Z,44.77
2022-11-28T23:59:12.135Z,51.83
